sensor_id;sensor_type;location;lat;lon;timestamp;P1;durP1;ratioP1;P2;durP2;ratioP2
37655;SDS011;23498;50.958;3.124;2023-01-05T00:00:26;25.48;;;4.50;;
37655;SDS011;23498;50.958;3.124;2023-01-05T00:02:52;28.48;;;5.60;;
37655;SDS011;23498;50.958;3.124;2023-01-05T00:05:18;26.23;;;4.32;;
37655;SDS011;23498;50.958;3.124;2023-01-05T00:07:44;24.05;;;4.55;;
37655;SDS011;23498;50.958;3.124;2023-01-05T00:10:10;26.27;;;4.50;;
37655;SDS011;23498;50.958;3.124;2023-01-05T00:12:56;22.63;;;3.60;;
37655;SDS011;23498;50.958;3.124;2023-01-05T00:15:40;29.88;;;5.78;;
37655;SDS011;23498;50.958;3.124;2023-01-05T00:18:25;28.60;;;4.35;;
37655;SDS011;23498;50.958;3.124;2023-01-05T00:21:13;29.63;;;4.68;;
37655;SDS011;23498;50.958;3.124;2023-01-05T00:23:58;25.40;;;4.25;;
37655;SDS011;23498;50.958;3.124;2023-01-05T00:26:24;25.83;;;3.95;;
37655;SDS011;23498;50.958;3.124;2023-01-05T00:28:50;28.58;;;4.45;;
37655;SDS011;23498;50.958;3.124;2023-01-05T00:31:16;20.65;;;4.22;;
37655;SDS011;23498;50.958;3.124;2023-01-05T00:33:42;22.67;;;4.22;;
37655;SDS011;23498;50.958;3.124;2023-01-05T00:36:08;25.23;;;3.70;;
37655;SDS011;23498;50.958;3.124;2023-01-05T00:38:34;33.63;;;5.30;;
37655;SDS011;23498;50.958;3.124;2023-01-05T00:41:00;22.95;;;3.75;;
37655;SDS011;23498;50.958;3.124;2023-01-05T00:43:26;24.02;;;4.28;;
37655;SDS011;23498;50.958;3.124;2023-01-05T00:45:52;26.02;;;4.22;;
37655;SDS011;23498;50.958;3.124;2023-01-05T00:48:18;19.27;;;4.28;;
37655;SDS011;23498;50.958;3.124;2023-01-05T00:50:45;24.70;;;4.10;;
37655;SDS011;23498;50.958;3.124;2023-01-05T00:53:11;23.92;;;4.20;;
37655;SDS011;23498;50.958;3.124;2023-01-05T00:55:37;26.40;;;4.15;;
37655;SDS011;23498;50.958;3.124;2023-01-05T00:58:02;30.20;;;4.65;;
37655;SDS011;23498;50.958;3.124;2023-01-05T01:00:28;24.85;;;4.53;;
37655;SDS011;23498;50.958;3.124;2023-01-05T01:02:54;28.98;;;4.00;;
37655;SDS011;23498;50.958;3.124;2023-01-05T01:05:20;25.35;;;4.25;;
37655;SDS011;23498;50.958;3.124;2023-01-05T01:07:46;24.48;;;4.00;;
37655;SDS011;23498;50.958;3.124;2023-01-05T01:10:13;23.85;;;5.07;;
37655;SDS011;23498;50.958;3.124;2023-01-05T01:12:39;24.65;;;4.65;;
37655;SDS011;23498;50.958;3.124;2023-01-05T01:15:06;28.98;;;4.80;;
37655;SDS011;23498;50.958;3.124;2023-01-05T01:17:32;31.65;;;5.03;;
37655;SDS011;23498;50.958;3.124;2023-01-05T01:19:58;25.88;;;4.28;;
37655;SDS011;23498;50.958;3.124;2023-01-05T01:22:24;22.27;;;3.40;;
37655;SDS011;23498;50.958;3.124;2023-01-05T01:24:50;29.27;;;6.22;;
37655;SDS011;23498;50.958;3.124;2023-01-05T01:27:16;25.23;;;4.95;;
37655;SDS011;23498;50.958;3.124;2023-01-05T01:29:42;26.05;;;4.57;;
37655;SDS011;23498;50.958;3.124;2023-01-05T01:32:08;20.02;;;3.10;;
37655;SDS011;23498;50.958;3.124;2023-01-05T01:34:34;28.83;;;4.35;;
37655;SDS011;23498;50.958;3.124;2023-01-05T01:37:00;27.70;;;4.28;;
37655;SDS011;23498;50.958;3.124;2023-01-05T01:39:26;30.88;;;5.15;;
37655;SDS011;23498;50.958;3.124;2023-01-05T01:41:52;32.63;;;5.43;;
37655;SDS011;23498;50.958;3.124;2023-01-05T01:47:03;23.35;;;4.85;;
37655;SDS011;23498;50.958;3.124;2023-01-05T01:49:29;30.35;;;4.40;;
37655;SDS011;23498;50.958;3.124;2023-01-05T01:51:55;25.92;;;4.38;;
37655;SDS011;23498;50.958;3.124;2023-01-05T01:54:21;26.60;;;4.88;;
37655;SDS011;23498;50.958;3.124;2023-01-05T01:56:51;36.00;;;5.65;;
37655;SDS011;23498;50.958;3.124;2023-01-05T01:59:18;28.27;;;5.40;;
37655;SDS011;23498;50.958;3.124;2023-01-05T02:01:44;23.50;;;4.07;;
37655;SDS011;23498;50.958;3.124;2023-01-05T02:04:10;33.45;;;5.03;;
37655;SDS011;23498;50.958;3.124;2023-01-05T02:06:36;28.90;;;4.40;;
37655;SDS011;23498;50.958;3.124;2023-01-05T02:09:02;26.33;;;4.13;;
37655;SDS011;23498;50.958;3.124;2023-01-05T02:11:50;30.67;;;4.22;;
37655;SDS011;23498;50.958;3.124;2023-01-05T02:17:03;28.00;;;4.65;;
37655;SDS011;23498;50.958;3.124;2023-01-05T02:19:42;30.48;;;4.72;;
37655;SDS011;23498;50.958;3.124;2023-01-05T02:25:40;26.20;;;4.65;;
37655;SDS011;23498;50.958;3.124;2023-01-05T02:40:52;27.38;;;5.18;;
37655;SDS011;23498;50.958;3.124;2023-01-05T02:43:19;29.88;;;4.50;;
37655;SDS011;23498;50.958;3.124;2023-01-05T02:45:46;35.80;;;5.25;;
37655;SDS011;23498;50.958;3.124;2023-01-05T02:48:12;33.25;;;4.80;;
37655;SDS011;23498;50.958;3.124;2023-01-05T02:50:46;33.28;;;5.70;;
37655;SDS011;23498;50.958;3.124;2023-01-05T02:55:53;22.15;;;4.22;;
37655;SDS011;23498;50.958;3.124;2023-01-05T02:58:30;29.75;;;4.75;;
37655;SDS011;23498;50.958;3.124;2023-01-05T03:01:02;26.30;;;4.82;;
37655;SDS011;23498;50.958;3.124;2023-01-05T03:06:01;34.55;;;4.50;;
37655;SDS011;23498;50.958;3.124;2023-01-05T03:08:28;32.85;;;5.00;;
37655;SDS011;23498;50.958;3.124;2023-01-05T03:11:03;34.67;;;4.65;;
37655;SDS011;23498;50.958;3.124;2023-01-05T03:13:54;27.02;;;5.18;;
37655;SDS011;23498;50.958;3.124;2023-01-05T03:16:22;27.77;;;4.18;;
37655;SDS011;23498;50.958;3.124;2023-01-05T03:18:50;25.75;;;4.70;;
37655;SDS011;23498;50.958;3.124;2023-01-05T03:21:36;35.47;;;5.43;;
37655;SDS011;23498;50.958;3.124;2023-01-05T03:24:21;27.13;;;4.88;;
37655;SDS011;23498;50.958;3.124;2023-01-05T03:27:05;25.80;;;4.28;;
37655;SDS011;23498;50.958;3.124;2023-01-05T03:29:51;34.53;;;5.18;;
37655;SDS011;23498;50.958;3.124;2023-01-05T03:32:37;29.98;;;4.22;;
37655;SDS011;23498;50.958;3.124;2023-01-05T03:35:27;27.37;;;4.83;;
37655;SDS011;23498;50.958;3.124;2023-01-05T03:37:59;33.92;;;4.70;;
37655;SDS011;23498;50.958;3.124;2023-01-05T03:40:28;29.40;;;4.78;;
37655;SDS011;23498;50.958;3.124;2023-01-05T03:42:55;37.70;;;5.32;;
37655;SDS011;23498;50.958;3.124;2023-01-05T03:45:21;31.30;;;4.93;;
37655;SDS011;23498;50.958;3.124;2023-01-05T03:47:48;31.77;;;4.60;;
37655;SDS011;23498;50.958;3.124;2023-01-05T03:50:15;30.35;;;4.80;;
37655;SDS011;23498;50.958;3.124;2023-01-05T03:52:41;30.95;;;5.82;;
37655;SDS011;23498;50.958;3.124;2023-01-05T03:55:07;23.88;;;4.60;;
37655;SDS011;23498;50.958;3.124;2023-01-05T03:57:33;26.50;;;3.72;;
37655;SDS011;23498;50.958;3.124;2023-01-05T03:59:59;27.75;;;4.50;;
37655;SDS011;23498;50.958;3.124;2023-01-05T04:02:25;30.15;;;5.20;;
37655;SDS011;23498;50.958;3.124;2023-01-05T04:04:51;29.17;;;4.47;;
37655;SDS011;23498;50.958;3.124;2023-01-05T04:07:17;32.25;;;5.32;;
37655;SDS011;23498;50.958;3.124;2023-01-05T04:09:43;32.20;;;5.30;;
37655;SDS011;23498;50.958;3.124;2023-01-05T04:12:09;29.25;;;5.60;;
37655;SDS011;23498;50.958;3.124;2023-01-05T04:14:35;33.47;;;4.70;;
37655;SDS011;23498;50.958;3.124;2023-01-05T04:17:01;38.17;;;5.50;;
37655;SDS011;23498;50.958;3.124;2023-01-05T04:19:27;38.67;;;4.75;;
37655;SDS011;23498;50.958;3.124;2023-01-05T04:21:53;33.58;;;5.35;;
37655;SDS011;23498;50.958;3.124;2023-01-05T04:24:19;32.22;;;5.57;;
37655;SDS011;23498;50.958;3.124;2023-01-05T04:26:45;39.03;;;5.90;;
37655;SDS011;23498;50.958;3.124;2023-01-05T04:29:11;25.55;;;4.85;;
37655;SDS011;23498;50.958;3.124;2023-01-05T04:31:37;42.58;;;6.30;;
37655;SDS011;23498;50.958;3.124;2023-01-05T04:34:03;30.52;;;5.32;;
37655;SDS011;23498;50.958;3.124;2023-01-05T04:36:29;36.47;;;5.13;;
37655;SDS011;23498;50.958;3.124;2023-01-05T04:38:55;31.40;;;4.93;;
37655;SDS011;23498;50.958;3.124;2023-01-05T04:41:21;31.92;;;6.10;;
37655;SDS011;23498;50.958;3.124;2023-01-05T04:43:47;28.80;;;4.85;;
37655;SDS011;23498;50.958;3.124;2023-01-05T04:46:13;28.63;;;5.35;;
37655;SDS011;23498;50.958;3.124;2023-01-05T04:48:39;29.95;;;5.32;;
37655;SDS011;23498;50.958;3.124;2023-01-05T04:51:04;28.88;;;4.90;;
37655;SDS011;23498;50.958;3.124;2023-01-05T04:53:30;26.13;;;4.93;;
37655;SDS011;23498;50.958;3.124;2023-01-05T04:55:57;32.85;;;6.30;;
37655;SDS011;23498;50.958;3.124;2023-01-05T04:58:23;31.25;;;5.63;;
37655;SDS011;23498;50.958;3.124;2023-01-05T05:00:49;31.70;;;5.38;;
37655;SDS011;23498;50.958;3.124;2023-01-05T05:03:15;38.38;;;5.90;;
37655;SDS011;23498;50.958;3.124;2023-01-05T05:05:41;38.88;;;5.78;;
37655;SDS011;23498;50.958;3.124;2023-01-05T05:08:07;31.90;;;5.93;;
37655;SDS011;23498;50.958;3.124;2023-01-05T05:10:33;30.63;;;5.95;;
37655;SDS011;23498;50.958;3.124;2023-01-05T05:12:59;28.83;;;5.28;;
37655;SDS011;23498;50.958;3.124;2023-01-05T05:15:25;24.95;;;4.72;;
37655;SDS011;23498;50.958;3.124;2023-01-05T05:17:51;35.13;;;5.45;;
37655;SDS011;23498;50.958;3.124;2023-01-05T05:20:17;29.77;;;5.75;;
37655;SDS011;23498;50.958;3.124;2023-01-05T05:22:43;32.53;;;4.78;;
37655;SDS011;23498;50.958;3.124;2023-01-05T05:25:10;27.60;;;5.70;;
37655;SDS011;23498;50.958;3.124;2023-01-05T05:27:36;27.58;;;4.43;;
37655;SDS011;23498;50.958;3.124;2023-01-05T05:30:02;29.58;;;5.03;;
37655;SDS011;23498;50.958;3.124;2023-01-05T05:32:28;27.23;;;4.30;;
37655;SDS011;23498;50.958;3.124;2023-01-05T05:34:54;31.25;;;5.63;;
37655;SDS011;23498;50.958;3.124;2023-01-05T05:37:20;31.50;;;5.15;;
37655;SDS011;23498;50.958;3.124;2023-01-05T05:39:46;27.67;;;4.47;;
37655;SDS011;23498;50.958;3.124;2023-01-05T05:42:12;32.80;;;6.13;;
37655;SDS011;23498;50.958;3.124;2023-01-05T05:44:38;29.08;;;5.30;;
37655;SDS011;23498;50.958;3.124;2023-01-05T05:47:04;34.88;;;5.20;;
37655;SDS011;23498;50.958;3.124;2023-01-05T05:49:30;26.55;;;4.72;;
37655;SDS011;23498;50.958;3.124;2023-01-05T05:51:56;25.02;;;6.13;;
37655;SDS011;23498;50.958;3.124;2023-01-05T05:54:22;32.88;;;5.80;;
37655;SDS011;23498;50.958;3.124;2023-01-05T05:56:48;29.75;;;5.65;;
37655;SDS011;23498;50.958;3.124;2023-01-05T05:59:14;33.35;;;5.32;;
37655;SDS011;23498;50.958;3.124;2023-01-05T06:01:40;27.92;;;5.63;;
37655;SDS011;23498;50.958;3.124;2023-01-05T06:04:06;31.65;;;5.03;;
37655;SDS011;23498;50.958;3.124;2023-01-05T06:06:32;38.55;;;5.70;;
37655;SDS011;23498;50.958;3.124;2023-01-05T06:08:58;35.63;;;6.13;;
37655;SDS011;23498;50.958;3.124;2023-01-05T06:11:24;29.92;;;5.25;;
37655;SDS011;23498;50.958;3.124;2023-01-05T06:13:50;26.10;;;5.07;;
37655;SDS011;23498;50.958;3.124;2023-01-05T06:16:16;28.52;;;5.03;;
37655;SDS011;23498;50.958;3.124;2023-01-05T06:18:42;28.25;;;5.15;;
37655;SDS011;23498;50.958;3.124;2023-01-05T06:21:08;39.08;;;5.68;;
37655;SDS011;23498;50.958;3.124;2023-01-05T06:23:34;30.45;;;5.25;;
37655;SDS011;23498;50.958;3.124;2023-01-05T06:26:00;32.22;;;6.53;;
37655;SDS011;23498;50.958;3.124;2023-01-05T06:28:26;31.23;;;4.68;;
37655;SDS011;23498;50.958;3.124;2023-01-05T06:30:52;35.70;;;4.78;;
37655;SDS011;23498;50.958;3.124;2023-01-05T06:33:18;36.03;;;5.68;;
37655;SDS011;23498;50.958;3.124;2023-01-05T06:35:44;36.30;;;5.63;;
37655;SDS011;23498;50.958;3.124;2023-01-05T06:38:10;33.00;;;6.22;;
37655;SDS011;23498;50.958;3.124;2023-01-05T06:40:37;32.40;;;5.00;;
37655;SDS011;23498;50.958;3.124;2023-01-05T06:43:04;31.98;;;5.55;;
37655;SDS011;23498;50.958;3.124;2023-01-05T06:45:30;35.92;;;5.20;;
37655;SDS011;23498;50.958;3.124;2023-01-05T06:47:56;32.72;;;4.88;;
37655;SDS011;23498;50.958;3.124;2023-01-05T06:50:22;27.30;;;4.72;;
37655;SDS011;23498;50.958;3.124;2023-01-05T06:52:48;26.38;;;4.95;;
37655;SDS011;23498;50.958;3.124;2023-01-05T06:55:14;39.78;;;5.88;;
37655;SDS011;23498;50.958;3.124;2023-01-05T06:57:43;34.42;;;5.60;;
37655;SDS011;23498;50.958;3.124;2023-01-05T07:00:09;32.65;;;6.05;;
37655;SDS011;23498;50.958;3.124;2023-01-05T07:02:36;40.78;;;5.95;;
37655;SDS011;23498;50.958;3.124;2023-01-05T07:05:02;28.42;;;5.20;;
37655;SDS011;23498;50.958;3.124;2023-01-05T07:07:28;28.52;;;5.55;;
37655;SDS011;23498;50.958;3.124;2023-01-05T07:09:54;31.10;;;6.10;;
37655;SDS011;23498;50.958;3.124;2023-01-05T07:12:20;36.70;;;4.97;;
37655;SDS011;23498;50.958;3.124;2023-01-05T07:14:46;26.02;;;4.53;;
37655;SDS011;23498;50.958;3.124;2023-01-05T07:17:12;27.17;;;5.38;;
37655;SDS011;23498;50.958;3.124;2023-01-05T07:19:38;35.63;;;6.18;;
37655;SDS011;23498;50.958;3.124;2023-01-05T07:22:04;31.90;;;6.72;;
37655;SDS011;23498;50.958;3.124;2023-01-05T07:24:30;32.30;;;5.50;;
37655;SDS011;23498;50.958;3.124;2023-01-05T07:26:59;30.17;;;5.35;;
37655;SDS011;23498;50.958;3.124;2023-01-05T07:29:25;33.40;;;5.65;;
37655;SDS011;23498;50.958;3.124;2023-01-05T07:31:51;31.80;;;5.68;;
37655;SDS011;23498;50.958;3.124;2023-01-05T07:34:18;20.88;;;4.03;;
37655;SDS011;23498;50.958;3.124;2023-01-05T07:36:44;31.63;;;6.13;;
37655;SDS011;23498;50.958;3.124;2023-01-05T07:39:10;28.10;;;5.15;;
37655;SDS011;23498;50.958;3.124;2023-01-05T07:41:36;29.08;;;5.25;;
37655;SDS011;23498;50.958;3.124;2023-01-05T07:44:02;22.33;;;4.18;;
37655;SDS011;23498;50.958;3.124;2023-01-05T07:46:28;35.47;;;5.50;;
37655;SDS011;23498;50.958;3.124;2023-01-05T07:48:54;31.85;;;4.82;;
37655;SDS011;23498;50.958;3.124;2023-01-05T07:51:21;31.15;;;6.00;;
37655;SDS011;23498;50.958;3.124;2023-01-05T07:53:47;26.27;;;4.95;;
37655;SDS011;23498;50.958;3.124;2023-01-05T07:56:13;27.15;;;4.35;;
37655;SDS011;23498;50.958;3.124;2023-01-05T07:58:39;28.25;;;5.18;;
37655;SDS011;23498;50.958;3.124;2023-01-05T08:01:06;31.15;;;5.68;;
37655;SDS011;23498;50.958;3.124;2023-01-05T08:03:32;32.63;;;5.50;;
37655;SDS011;23498;50.958;3.124;2023-01-05T08:06:09;28.27;;;5.43;;
37655;SDS011;23498;50.958;3.124;2023-01-05T08:08:35;37.28;;;5.15;;
37655;SDS011;23498;50.958;3.124;2023-01-05T08:11:05;27.15;;;4.43;;
37655;SDS011;23498;50.958;3.124;2023-01-05T08:13:31;27.67;;;4.97;;
37655;SDS011;23498;50.958;3.124;2023-01-05T08:16:15;26.27;;;5.07;;
37655;SDS011;23498;50.958;3.124;2023-01-05T08:18:41;39.92;;;5.25;;
37655;SDS011;23498;50.958;3.124;2023-01-05T08:21:07;28.55;;;5.03;;
37655;SDS011;23498;50.958;3.124;2023-01-05T08:23:34;34.88;;;5.25;;
37655;SDS011;23498;50.958;3.124;2023-01-05T08:26:07;35.92;;;5.15;;
37655;SDS011;23498;50.958;3.124;2023-01-05T08:28:34;37.42;;;5.20;;
37655;SDS011;23498;50.958;3.124;2023-01-05T08:31:04;27.85;;;4.78;;
37655;SDS011;23498;50.958;3.124;2023-01-05T08:33:30;30.35;;;4.88;;
37655;SDS011;23498;50.958;3.124;2023-01-05T08:35:56;29.70;;;5.45;;
37655;SDS011;23498;50.958;3.124;2023-01-05T08:38:23;29.23;;;5.60;;
37655;SDS011;23498;50.958;3.124;2023-01-05T08:40:49;27.50;;;4.88;;
37655;SDS011;23498;50.958;3.124;2023-01-05T08:43:15;28.70;;;5.55;;
37655;SDS011;23498;50.958;3.124;2023-01-05T08:45:41;29.30;;;5.00;;
37655;SDS011;23498;50.958;3.124;2023-01-05T08:48:07;31.05;;;4.97;;
37655;SDS011;23498;50.958;3.124;2023-01-05T08:50:34;31.10;;;4.50;;
37655;SDS011;23498;50.958;3.124;2023-01-05T08:53:02;28.00;;;5.50;;
37655;SDS011;23498;50.958;3.124;2023-01-05T08:55:28;33.20;;;5.65;;
37655;SDS011;23498;50.958;3.124;2023-01-05T08:57:54;32.03;;;5.32;;
37655;SDS011;23498;50.958;3.124;2023-01-05T09:00:21;27.95;;;5.05;;
37655;SDS011;23498;50.958;3.124;2023-01-05T09:02:47;31.58;;;5.57;;
37655;SDS011;23498;50.958;3.124;2023-01-05T09:05:13;26.25;;;4.93;;
37655;SDS011;23498;50.958;3.124;2023-01-05T09:07:39;34.50;;;6.03;;
37655;SDS011;23498;50.958;3.124;2023-01-05T09:10:05;29.65;;;5.53;;
37655;SDS011;23498;50.958;3.124;2023-01-05T09:12:35;33.55;;;6.45;;
37655;SDS011;23498;50.958;3.124;2023-01-05T09:15:02;31.45;;;6.07;;
37655;SDS011;23498;50.958;3.124;2023-01-05T09:17:28;34.25;;;6.00;;
37655;SDS011;23498;50.958;3.124;2023-01-05T09:19:54;24.73;;;4.72;;
37655;SDS011;23498;50.958;3.124;2023-01-05T09:22:20;33.80;;;5.53;;
37655;SDS011;23498;50.958;3.124;2023-01-05T09:24:46;27.05;;;4.95;;
37655;SDS011;23498;50.958;3.124;2023-01-05T09:27:12;20.80;;;5.20;;
37655;SDS011;23498;50.958;3.124;2023-01-05T09:29:38;31.65;;;5.22;;
37655;SDS011;23498;50.958;3.124;2023-01-05T09:32:04;28.70;;;4.95;;
37655;SDS011;23498;50.958;3.124;2023-01-05T09:34:30;34.67;;;5.43;;
37655;SDS011;23498;50.958;3.124;2023-01-05T09:36:56;30.40;;;5.65;;
37655;SDS011;23498;50.958;3.124;2023-01-05T09:39:22;34.95;;;6.32;;
37655;SDS011;23498;50.958;3.124;2023-01-05T09:41:53;27.23;;;6.35;;
37655;SDS011;23498;50.958;3.124;2023-01-05T09:49:42;26.23;;;4.67;;
37655;SDS011;23498;50.958;3.124;2023-01-05T09:52:09;36.50;;;6.07;;
37655;SDS011;23498;50.958;3.124;2023-01-05T09:54:36;32.17;;;5.80;;
37655;SDS011;23498;50.958;3.124;2023-01-05T09:57:04;33.70;;;5.68;;
37655;SDS011;23498;50.958;3.124;2023-01-05T09:59:31;29.85;;;6.03;;
37655;SDS011;23498;50.958;3.124;2023-01-05T10:01:59;28.48;;;5.25;;
37655;SDS011;23498;50.958;3.124;2023-01-05T10:04:27;34.00;;;6.32;;
37655;SDS011;23498;50.958;3.124;2023-01-05T10:06:54;28.60;;;5.25;;
37655;SDS011;23498;50.958;3.124;2023-01-05T10:09:22;29.52;;;5.18;;
37655;SDS011;23498;50.958;3.124;2023-01-05T10:14:52;29.02;;;5.20;;
37655;SDS011;23498;50.958;3.124;2023-01-05T10:17:19;28.98;;;5.82;;
37655;SDS011;23498;50.958;3.124;2023-01-05T10:19:46;27.35;;;5.38;;
37655;SDS011;23498;50.958;3.124;2023-01-05T10:27:25;40.30;;;6.47;;
37655;SDS011;23498;50.958;3.124;2023-01-05T10:29:54;30.13;;;5.95;;
37655;SDS011;23498;50.958;3.124;2023-01-05T10:32:23;30.75;;;5.43;;
37655;SDS011;23498;50.958;3.124;2023-01-05T10:35:09;29.58;;;5.47;;
37655;SDS011;23498;50.958;3.124;2023-01-05T10:42:48;29.10;;;5.00;;
37655;SDS011;23498;50.958;3.124;2023-01-05T10:45:19;26.02;;;5.15;;
37655;SDS011;23498;50.958;3.124;2023-01-05T10:47:45;26.50;;;4.85;;
37655;SDS011;23498;50.958;3.124;2023-01-05T10:50:17;33.88;;;5.63;;
37655;SDS011;23498;50.958;3.124;2023-01-05T10:52:45;27.17;;;4.97;;
37655;SDS011;23498;50.958;3.124;2023-01-05T10:55:12;29.70;;;5.00;;
37655;SDS011;23498;50.958;3.124;2023-01-05T10:57:40;25.48;;;4.88;;
37655;SDS011;23498;50.958;3.124;2023-01-05T11:00:08;32.13;;;5.60;;
37655;SDS011;23498;50.958;3.124;2023-01-05T11:02:35;25.42;;;4.95;;
37655;SDS011;23498;50.958;3.124;2023-01-05T11:07:56;21.17;;;3.70;;
37655;SDS011;23498;50.958;3.124;2023-01-05T11:10:38;24.77;;;5.28;;
37655;SDS011;23498;50.958;3.124;2023-01-05T11:15:41;23.85;;;4.95;;
37655;SDS011;23498;50.958;3.124;2023-01-05T11:18:17;33.45;;;5.18;;
37655;SDS011;23498;50.958;3.124;2023-01-05T11:23:35;32.05;;;6.18;;
37655;SDS011;23498;50.958;3.124;2023-01-05T11:31:31;26.83;;;5.57;;
37655;SDS011;23498;50.958;3.124;2023-01-05T11:33:57;35.70;;;5.03;;
37655;SDS011;23498;50.958;3.124;2023-01-05T11:36:24;27.40;;;5.05;;
37655;SDS011;23498;50.958;3.124;2023-01-05T11:38:52;22.23;;;4.72;;
37655;SDS011;23498;50.958;3.124;2023-01-05T11:41:20;23.08;;;5.78;;
37655;SDS011;23498;50.958;3.124;2023-01-05T11:43:47;26.30;;;5.35;;
37655;SDS011;23498;50.958;3.124;2023-01-05T11:46:13;28.58;;;5.30;;
37655;SDS011;23498;50.958;3.124;2023-01-05T11:48:45;29.02;;;4.82;;
37655;SDS011;23498;50.958;3.124;2023-01-05T11:59:38;32.78;;;6.28;;
37655;SDS011;23498;50.958;3.124;2023-01-05T12:07:34;26.23;;;5.25;;
37655;SDS011;23498;50.958;3.124;2023-01-05T12:10:12;30.27;;;6.82;;
37655;SDS011;23498;50.958;3.124;2023-01-05T12:20:22;25.80;;;5.82;;
37655;SDS011;23498;50.958;3.124;2023-01-05T12:28:14;24.45;;;5.40;;
37655;SDS011;23498;50.958;3.124;2023-01-05T12:30:49;27.13;;;5.35;;
37655;SDS011;23498;50.958;3.124;2023-01-05T12:49:02;23.13;;;5.32;;
37655;SDS011;23498;50.958;3.124;2023-01-05T12:51:32;22.13;;;5.30;;
37655;SDS011;23498;50.958;3.124;2023-01-05T12:56:50;13.05;;;4.82;;
37655;SDS011;23498;50.958;3.124;2023-01-05T13:04:38;8.48;;;3.85;;
37655;SDS011;23498;50.958;3.124;2023-01-05T13:07:07;7.35;;;3.78;;
37655;SDS011;23498;50.958;3.124;2023-01-05T13:09:34;5.43;;;3.22;;
37655;SDS011;23498;50.958;3.124;2023-01-05T13:12:08;5.70;;;3.05;;
37655;SDS011;23498;50.958;3.124;2023-01-05T13:14:39;6.95;;;3.60;;
37655;SDS011;23498;50.958;3.124;2023-01-05T13:19:43;5.50;;;3.20;;
37655;SDS011;23498;50.958;3.124;2023-01-05T13:22:13;5.50;;;3.05;;
37655;SDS011;23498;50.958;3.124;2023-01-05T13:24:45;5.88;;;3.60;;
37655;SDS011;23498;50.958;3.124;2023-01-05T13:27:15;7.68;;;3.67;;
37655;SDS011;23498;50.958;3.124;2023-01-05T13:29:43;5.40;;;3.22;;
37655;SDS011;23498;50.958;3.124;2023-01-05T13:34:52;5.45;;;3.92;;
37655;SDS011;23498;50.958;3.124;2023-01-05T13:55:18;6.63;;;3.72;;
37655;SDS011;23498;50.958;3.124;2023-01-05T13:57:46;6.15;;;3.88;;
37655;SDS011;23498;50.958;3.124;2023-01-05T14:02:45;6.82;;;4.10;;
37655;SDS011;23498;50.958;3.124;2023-01-05T14:05:23;6.18;;;3.53;;
37655;SDS011;23498;50.958;3.124;2023-01-05T14:07:51;5.97;;;3.70;;
37655;SDS011;23498;50.958;3.124;2023-01-05T14:10:19;5.68;;;3.63;;
37655;SDS011;23498;50.958;3.124;2023-01-05T14:12:47;6.30;;;4.00;;
37655;SDS011;23498;50.958;3.124;2023-01-05T14:18:32;6.90;;;4.43;;
37655;SDS011;23498;50.958;3.124;2023-01-05T14:20:45;8.57;;;5.00;;
37655;SDS011;23498;50.958;3.124;2023-01-05T14:28:18;8.10;;;4.80;;
37655;SDS011;23498;50.958;3.124;2023-01-05T14:30:44;7.47;;;4.20;;
37655;SDS011;23498;50.958;3.124;2023-01-05T14:33:11;7.38;;;4.43;;
37655;SDS011;23498;50.958;3.124;2023-01-05T14:35:37;7.18;;;4.22;;
37655;SDS011;23498;50.958;3.124;2023-01-05T14:38:04;8.70;;;4.10;;
37655;SDS011;23498;50.958;3.124;2023-01-05T14:42:58;5.07;;;3.50;;
37655;SDS011;23498;50.958;3.124;2023-01-05T14:45:29;8.25;;;3.88;;
37655;SDS011;23498;50.958;3.124;2023-01-05T14:47:56;5.70;;;3.65;;
37655;SDS011;23498;50.958;3.124;2023-01-05T14:55:31;6.07;;;3.58;;
37655;SDS011;23498;50.958;3.124;2023-01-05T14:57:59;7.05;;;3.40;;
37655;SDS011;23498;50.958;3.124;2023-01-05T15:06:04;8.55;;;3.58;;
37655;SDS011;23498;50.958;3.124;2023-01-05T15:17:02;5.47;;;3.60;;
37655;SDS011;23498;50.958;3.124;2023-01-05T15:22:02;5.70;;;3.33;;
37655;SDS011;23498;50.958;3.124;2023-01-05T15:29:50;7.15;;;4.03;;
37655;SDS011;23498;50.958;3.124;2023-01-05T15:32:23;7.38;;;4.00;;
37655;SDS011;23498;50.958;3.124;2023-01-05T15:39:46;7.03;;;3.42;;
37655;SDS011;23498;50.958;3.124;2023-01-05T15:42:14;6.80;;;3.15;;
37655;SDS011;23498;50.958;3.124;2023-01-05T15:44:46;4.43;;;2.83;;
37655;SDS011;23498;50.958;3.124;2023-01-05T15:47:13;3.43;;;2.20;;
37655;SDS011;23498;50.958;3.124;2023-01-05T15:49:39;4.78;;;2.20;;
37655;SDS011;23498;50.958;3.124;2023-01-05T15:52:07;4.68;;;2.35;;
37655;SDS011;23498;50.958;3.124;2023-01-05T15:54:42;3.35;;;1.95;;
37655;SDS011;23498;50.958;3.124;2023-01-05T15:57:20;3.67;;;1.95;;
37655;SDS011;23498;50.958;3.124;2023-01-05T15:59:46;4.45;;;2.22;;
37655;SDS011;23498;50.958;3.124;2023-01-05T16:02:20;5.82;;;2.30;;
37655;SDS011;23498;50.958;3.124;2023-01-05T16:04:46;6.72;;;2.45;;
37655;SDS011;23498;50.958;3.124;2023-01-05T16:07:12;7.15;;;2.90;;
37655;SDS011;23498;50.958;3.124;2023-01-05T16:09:38;5.30;;;2.80;;
37655;SDS011;23498;50.958;3.124;2023-01-05T16:12:06;5.63;;;2.72;;
37655;SDS011;23498;50.958;3.124;2023-01-05T16:14:36;4.47;;;2.70;;
37655;SDS011;23498;50.958;3.124;2023-01-05T16:17:05;5.93;;;2.75;;
37655;SDS011;23498;50.958;3.124;2023-01-05T16:22:01;5.45;;;3.28;;
37655;SDS011;23498;50.958;3.124;2023-01-05T16:36:08;5.95;;;4.20;;
37655;SDS011;23498;50.958;3.124;2023-01-05T16:38:42;7.22;;;4.13;;
37655;SDS011;23498;50.958;3.124;2023-01-05T16:44:31;6.13;;;4.28;;
37655;SDS011;23498;50.958;3.124;2023-01-05T16:47:39;6.68;;;4.93;;
37655;SDS011;23498;50.958;3.124;2023-01-05T16:55:31;8.85;;;5.13;;
37655;SDS011;23498;50.958;3.124;2023-01-05T16:58:00;8.07;;;4.43;;
37655;SDS011;23498;50.958;3.124;2023-01-05T17:02:55;8.00;;;4.30;;
37655;SDS011;23498;50.958;3.124;2023-01-05T17:05:41;8.75;;;3.85;;
37655;SDS011;23498;50.958;3.124;2023-01-05T17:11:07;7.25;;;4.45;;
37655;SDS011;23498;50.958;3.124;2023-01-05T17:13:40;7.70;;;4.30;;
37655;SDS011;23498;50.958;3.124;2023-01-05T17:16:27;8.02;;;4.88;;
37655;SDS011;23498;50.958;3.124;2023-01-05T17:18:55;9.05;;;4.95;;
37655;SDS011;23498;50.958;3.124;2023-01-05T17:21:33;7.85;;;5.30;;
37655;SDS011;23498;50.958;3.124;2023-01-05T17:24:09;10.95;;;6.30;;
37655;SDS011;23498;50.958;3.124;2023-01-05T17:27:04;15.02;;;7.13;;
37655;SDS011;23498;50.958;3.124;2023-01-05T17:29:30;11.63;;;6.63;;
37655;SDS011;23498;50.958;3.124;2023-01-05T17:32:19;11.43;;;6.13;;
37655;SDS011;23498;50.958;3.124;2023-01-05T17:34:58;12.60;;;5.88;;
37655;SDS011;23498;50.958;3.124;2023-01-05T17:37:27;12.73;;;5.70;;
37655;SDS011;23498;50.958;3.124;2023-01-05T17:39:53;11.63;;;5.85;;
37655;SDS011;23498;50.958;3.124;2023-01-05T17:42:29;10.95;;;6.47;;
37655;SDS011;23498;50.958;3.124;2023-01-05T17:45:12;12.07;;;5.70;;
37655;SDS011;23498;50.958;3.124;2023-01-05T17:47:38;12.35;;;6.00;;
37655;SDS011;23498;50.958;3.124;2023-01-05T17:50:05;13.07;;;5.93;;
37655;SDS011;23498;50.958;3.124;2023-01-05T17:52:34;13.45;;;5.63;;
37655;SDS011;23498;50.958;3.124;2023-01-05T17:55:03;13.05;;;5.60;;
37655;SDS011;23498;50.958;3.124;2023-01-05T17:57:46;10.20;;;4.93;;
37655;SDS011;23498;50.958;3.124;2023-01-05T18:00:31;13.63;;;5.20;;
37655;SDS011;23498;50.958;3.124;2023-01-05T18:03:09;18.35;;;4.95;;
37655;SDS011;23498;50.958;3.124;2023-01-05T18:06:03;14.73;;;4.63;;
37655;SDS011;23498;50.958;3.124;2023-01-05T18:08:37;14.05;;;4.88;;
37655;SDS011;23498;50.958;3.124;2023-01-05T18:11:03;11.13;;;4.22;;